FSIAFMCZ

Guest
Details From FSIA - SEYCHELLES INTL
To FMCZ - Dzaoudzi Pamandzi
Flight Number -
Tags generated
Created
Modified
Stats Distance 828 nm / 1,534 km
Max Altitude 34,000 ft / 10,363 m
Waypoints 7
Social Downloads 4
Likes 0
Share VATSIM

Download

Looking for another format? Having issues loading an existing format? Contact us
Advertisement - Login to hide

Notes

Basic altitude profile: - Ascent Rate: 2500ft/min - Ascent Speed: 250kts - Cruise Altitude: 35000ft - Cruise Speed: 420kts - Descent Rate: 1500ft/min - Descent Speed: 250kts

Route

FSIA PRA UG465 MAROF FMCZ

ID Type Via Altitude Latitude Longitude Leg Dist Tot Dist Heading (true) Name
O FSIA APT - 0 ft / 0 m -4.67438˚ 55.52183˚ - 0 nm - SEYCHELLES INTL
PRA VOR - 8,800 ft / 2,682 m -4.30737˚ 55.70707˚ 24 nm 24 nm 27° / 27° PRASLIN VOR-DME
OKLAB FIX UG465 (AWY-HI) 34,000 ft / 10,363 m -6.41028˚ 53.10806˚ 200 nm 224 nm 231° / 231° -
NESAM FIX UG465 (AWY-HI) 34,000 ft / 10,363 m -10.00000˚ 48.53167˚ 347 nm 571 nm 231° / 232° -
BIRAL FIX UG465 (AWY-HI) 34,000 ft / 10,363 m -10.92583˚ 47.57667˚ 79 nm 651 nm 225° / 225° -
MAROF FIX UG465 (AWY-HI) 24,500 ft / 7,468 m -12.30944˚ 46.13333˚ 118 nm 769 nm 225° / 226° -
O FMCZ APT - 0 ft / 0 m -12.80944˚ 45.28222˚ 58 nm 828 nm 239° / 239° Dzaoudzi Pamandzi

Altitude Profile

Advertisement - Login to hide

Weather


0- 5 10 15 20 25 30 35+ Temperature / ° C

Clouds and Precipitation
Forecast for 2018-05-21 00:00 UTC. Updated 3 hours ago

Ground ~20,000 ft ~40,000 ft Winds

FSIA

Details ICAO FSIA (SEZ)
Name SEYCHELLES INTL
Region Seychelles
Timezone Unknown (UTC+0.0)
Stats Elevation 10 ft / 3 m (AMSL)
Location -4.674378° 55.521829°
Runways 1
Magnetic Variation 5.030° W

METAR

FSIA 210100Z 16008KT 080V220 9999 R13///// FEW024 27/23 Q1009 NOSIG

Decode

TAF

TAF FSIA 202305Z 2100/2124 15015KT 9999 SCT022 TEMPO 2100/2104 -SHRA FEW017CB BKN018 BECMG 2106/2108 FEW024 PROB40 TEMPO 2113/2122 -SHRA BKN020

Decode

Departure Runways

ID Width Length Bearing (true) Bearing (mag) Surface Threshold Offset Overrun Length
13 151 ft / 46 m 9,813 ft / 2,991 m 125.18° 130.21° Concrete 1,001 ft / 305 m 279 ft / 85 m
31 151 ft / 46 m 9,813 ft / 2,991 m 305.18° 310.21° Concrete 1,001 ft / 305 m 115 ft / 35 m

FMCZ

Details ICAO FMCZ (DZA)
Name Dzaoudzi Pamandzi
Region Comoros, Mayotte, Réunion and Madagascar
Timezone Unknown (UTC+0.0)
Stats Elevation 23 ft / 7 m (AMSL)
Location -12.809439° 45.282224°
Runways 1
Magnetic Variation 8.144° W

METAR

FMCZ 210130Z AUTO 16010KT 9999 FEW024 SCT030 26/22 Q1012 BECMG 06005KT

Decode

TAF

TAF TAF FMCZ 202300Z 2100/2124 06005KT 9999 SCT022 BECMG 2104/2106 14012KT

Decode

Destination Runways

ID Width Length Bearing (true) Bearing (mag) Surface Threshold Offset Overrun Length
16 92 ft / 28 m 6,109 ft / 1,862 m 149.93° 158.07° Asphalt 250 ft / 76 m 250 ft / 76 m
34 92 ft / 28 m 6,109 ft / 1,862 m 329.93° 338.07° Asphalt 0 ft / 0 m 82 ft / 25 m

Popular Alternatives